sensor_id;sensor_type;location;lat;lon;timestamp;temperature;humidity
67974;DHT22;54756;51.140;6.952;2022-07-06T00:00:25;14.30;99.90
67974;DHT22;54756;51.140;6.952;2022-07-06T00:02:25;14.20;99.90
67974;DHT22;54756;51.140;6.952;2022-07-06T00:04:26;14.20;99.90
67974;DHT22;54756;51.140;6.952;2022-07-06T00:06:26;14.10;99.90
67974;DHT22;54756;51.140;6.952;2022-07-06T00:08:27;14.10;99.90
67974;DHT22;54756;51.140;6.952;2022-07-06T00:10:28;14.00;99.90
67974;DHT22;54756;51.140;6.952;2022-07-06T00:12:28;13.90;99.90
67974;DHT22;54756;51.140;6.952;2022-07-06T00:14:29;13.90;99.90
67974;DHT22;54756;51.140;6.952;2022-07-06T00:16:29;13.80;99.90
67974;DHT22;54756;51.140;6.952;2022-07-06T00:18:30;13.70;99.90
67974;DHT22;54756;51.140;6.952;2022-07-06T00:20:31;13.70;99.90
67974;DHT22;54756;51.140;6.952;2022-07-06T00:22:31;13.60;99.90
67974;DHT22;54756;51.140;6.952;2022-07-06T00:24:32;13.60;99.90
67974;DHT22;54756;51.140;6.952;2022-07-06T00:26:33;13.50;99.90
67974;DHT22;54756;51.140;6.952;2022-07-06T00:28:33;13.50;99.90
67974;DHT22;54756;51.140;6.952;2022-07-06T00:30:34;13.40;99.90
67974;DHT22;54756;51.140;6.952;2022-07-06T00:32:35;13.30;99.90
67974;DHT22;54756;51.140;6.952;2022-07-06T00:34:35;13.30;99.90
67974;DHT22;54756;51.140;6.952;2022-07-06T00:36:36;13.20;99.90
67974;DHT22;54756;51.140;6.952;2022-07-06T00:38:36;13.20;99.90
67974;DHT22;54756;51.140;6.952;2022-07-06T00:40:37;13.10;99.90
67974;DHT22;54756;51.140;6.952;2022-07-06T00:42:42;13.10;99.90
67974;DHT22;54756;51.140;6.952;2022-07-06T00:44:43;13.10;99.90
67974;DHT22;54756;51.140;6.952;2022-07-06T00:46:44;13.10;99.90
67974;DHT22;54756;51.140;6.952;2022-07-06T00:48:44;13.00;99.90
67974;DHT22;54756;51.140;6.952;2022-07-06T00:50:45;13.00;99.90
67974;DHT22;54756;51.140;6.952;2022-07-06T00:52:47;12.90;99.90
67974;DHT22;54756;51.140;6.952;2022-07-06T00:54:48;12.80;99.90
67974;DHT22;54756;51.140;6.952;2022-07-06T00:56:49;12.80;99.90
67974;DHT22;54756;51.140;6.952;2022-07-06T00:58:50;12.70;99.90
67974;DHT22;54756;51.140;6.952;2022-07-06T01:00:50;12.70;99.90
67974;DHT22;54756;51.140;6.952;2022-07-06T01:02:52;12.70;99.90
67974;DHT22;54756;51.140;6.952;2022-07-06T01:04:52;12.60;99.90
67974;DHT22;54756;51.140;6.952;2022-07-06T01:06:53;12.60;99.90
67974;DHT22;54756;51.140;6.952;2022-07-06T01:08:54;12.50;99.90
67974;DHT22;54756;51.140;6.952;2022-07-06T01:10:55;12.50;99.90
67974;DHT22;54756;51.140;6.952;2022-07-06T01:12:57;12.50;99.90
67974;DHT22;54756;51.140;6.952;2022-07-06T01:14:57;12.40;99.90
67974;DHT22;54756;51.140;6.952;2022-07-06T01:16:58;12.40;99.90
67974;DHT22;54756;51.140;6.952;2022-07-06T01:18:59;12.40;99.90
67974;DHT22;54756;51.140;6.952;2022-07-06T01:21:10;12.30;99.90
67974;DHT22;54756;51.140;6.952;2022-07-06T01:23:11;12.40;99.90
67974;DHT22;54756;51.140;6.952;2022-07-06T01:25:12;12.30;99.90
67974;DHT22;54756;51.140;6.952;2022-07-06T01:27:13;12.30;99.90
67974;DHT22;54756;51.140;6.952;2022-07-06T01:29:13;12.20;99.90
67974;DHT22;54756;51.140;6.952;2022-07-06T01:31:19;12.20;99.90
67974;DHT22;54756;51.140;6.952;2022-07-06T01:33:20;12.20;99.90
67974;DHT22;54756;51.140;6.952;2022-07-06T01:35:22;12.10;99.90
67974;DHT22;54756;51.140;6.952;2022-07-06T01:37:24;12.10;99.90
67974;DHT22;54756;51.140;6.952;2022-07-06T01:39:25;12.10;99.90
67974;DHT22;54756;51.140;6.952;2022-07-06T01:41:26;12.00;99.90
67974;DHT22;54756;51.140;6.952;2022-07-06T01:43:26;12.00;99.90
67974;DHT22;54756;51.140;6.952;2022-07-06T01:45:27;11.90;99.90
67974;DHT22;54756;51.140;6.952;2022-07-06T01:47:31;11.90;99.90
67974;DHT22;54756;51.140;6.952;2022-07-06T01:49:33;11.90;99.90
67974;DHT22;54756;51.140;6.952;2022-07-06T01:51:33;11.80;99.90
67974;DHT22;54756;51.140;6.952;2022-07-06T01:53:34;11.80;99.90
67974;DHT22;54756;51.140;6.952;2022-07-06T01:55:35;11.80;99.90
67974;DHT22;54756;51.140;6.952;2022-07-06T01:57:35;11.70;99.90
67974;DHT22;54756;51.140;6.952;2022-07-06T01:59:36;11.70;99.90
67974;DHT22;54756;51.140;6.952;2022-07-06T02:01:37;11.60;99.90
67974;DHT22;54756;51.140;6.952;2022-07-06T02:03:38;11.60;99.90
67974;DHT22;54756;51.140;6.952;2022-07-06T02:05:39;11.60;99.90
67974;DHT22;54756;51.140;6.952;2022-07-06T02:07:39;11.60;99.90
67974;DHT22;54756;51.140;6.952;2022-07-06T02:09:40;11.60;99.90
67974;DHT22;54756;51.140;6.952;2022-07-06T02:11:40;11.50;99.90
67974;DHT22;54756;51.140;6.952;2022-07-06T02:13:41;11.50;99.90
67974;DHT22;54756;51.140;6.952;2022-07-06T02:15:42;11.50;99.90
67974;DHT22;54756;51.140;6.952;2022-07-06T02:17:42;11.50;99.90
67974;DHT22;54756;51.140;6.952;2022-07-06T02:19:43;11.50;99.90
67974;DHT22;54756;51.140;6.952;2022-07-06T02:21:43;11.60;99.90
67974;DHT22;54756;51.140;6.952;2022-07-06T02:23:44;11.50;99.90
67974;DHT22;54756;51.140;6.952;2022-07-06T02:25:44;11.50;99.90
67974;DHT22;54756;51.140;6.952;2022-07-06T02:27:45;11.50;99.90
67974;DHT22;54756;51.140;6.952;2022-07-06T02:29:46;11.40;99.90
67974;DHT22;54756;51.140;6.952;2022-07-06T02:31:46;11.40;99.90
67974;DHT22;54756;51.140;6.952;2022-07-06T02:33:47;11.30;99.90
67974;DHT22;54756;51.140;6.952;2022-07-06T02:35:47;11.30;99.90
67974;DHT22;54756;51.140;6.952;2022-07-06T02:37:48;11.30;99.90
67974;DHT22;54756;51.140;6.952;2022-07-06T02:39:48;11.30;99.90
67974;DHT22;54756;51.140;6.952;2022-07-06T02:41:49;11.30;99.90
67974;DHT22;54756;51.140;6.952;2022-07-06T02:43:50;11.30;99.90
67974;DHT22;54756;51.140;6.952;2022-07-06T02:45:50;11.20;99.90
67974;DHT22;54756;51.140;6.952;2022-07-06T02:47:51;11.20;99.90
67974;DHT22;54756;51.140;6.952;2022-07-06T02:49:52;11.20;99.90
67974;DHT22;54756;51.140;6.952;2022-07-06T02:51:53;11.10;99.90
67974;DHT22;54756;51.140;6.952;2022-07-06T02:53:53;11.10;99.90
67974;DHT22;54756;51.140;6.952;2022-07-06T02:55:54;11.00;99.90
67974;DHT22;54756;51.140;6.952;2022-07-06T02:57:54;11.00;99.90
67974;DHT22;54756;51.140;6.952;2022-07-06T02:59:55;10.90;99.90
67974;DHT22;54756;51.140;6.952;2022-07-06T03:01:56;10.90;99.90
67974;DHT22;54756;51.140;6.952;2022-07-06T03:03:56;10.80;99.90
67974;DHT22;54756;51.140;6.952;2022-07-06T03:05:57;10.80;99.90
67974;DHT22;54756;51.140;6.952;2022-07-06T03:07:57;10.80;99.90
67974;DHT22;54756;51.140;6.952;2022-07-06T03:09:58;10.80;99.90
67974;DHT22;54756;51.140;6.952;2022-07-06T03:11:58;10.70;99.90
67974;DHT22;54756;51.140;6.952;2022-07-06T03:13:59;10.60;99.90
67974;DHT22;54756;51.140;6.952;2022-07-06T03:15:59;10.70;99.90
67974;DHT22;54756;51.140;6.952;2022-07-06T03:18:00;10.60;99.90
67974;DHT22;54756;51.140;6.952;2022-07-06T03:20:01;10.60;99.90
67974;DHT22;54756;51.140;6.952;2022-07-06T03:22:02;10.60;99.90
67974;DHT22;54756;51.140;6.952;2022-07-06T03:24:03;10.60;99.90
67974;DHT22;54756;51.140;6.952;2022-07-06T03:26:04;10.60;99.90
67974;DHT22;54756;51.140;6.952;2022-07-06T03:28:04;10.50;99.90
67974;DHT22;54756;51.140;6.952;2022-07-06T03:30:05;10.60;99.90
67974;DHT22;54756;51.140;6.952;2022-07-06T03:32:06;10.60;99.90
67974;DHT22;54756;51.140;6.952;2022-07-06T03:34:07;10.60;99.90
67974;DHT22;54756;51.140;6.952;2022-07-06T03:36:08;10.60;99.90
67974;DHT22;54756;51.140;6.952;2022-07-06T03:38:08;10.60;99.90
67974;DHT22;54756;51.140;6.952;2022-07-06T03:40:09;10.60;99.90
67974;DHT22;54756;51.140;6.952;2022-07-06T03:42:10;10.60;99.90
67974;DHT22;54756;51.140;6.952;2022-07-06T03:44:11;10.60;99.90
67974;DHT22;54756;51.140;6.952;2022-07-06T03:46:11;10.60;99.90
67974;DHT22;54756;51.140;6.952;2022-07-06T03:48:12;10.70;99.90
67974;DHT22;54756;51.140;6.952;2022-07-06T03:50:12;10.80;99.90
67974;DHT22;54756;51.140;6.952;2022-07-06T03:52:13;10.80;99.90
67974;DHT22;54756;51.140;6.952;2022-07-06T03:54:14;10.90;99.90
67974;DHT22;54756;51.140;6.952;2022-07-06T03:56:14;10.90;99.90
67974;DHT22;54756;51.140;6.952;2022-07-06T03:58:30;10.90;99.90
67974;DHT22;54756;51.140;6.952;2022-07-06T04:00:31;11.00;99.90
67974;DHT22;54756;51.140;6.952;2022-07-06T04:02:31;11.00;99.90
67974;DHT22;54756;51.140;6.952;2022-07-06T04:04:33;11.00;99.90
67974;DHT22;54756;51.140;6.952;2022-07-06T04:06:34;11.10;99.90
67974;DHT22;54756;51.140;6.952;2022-07-06T04:08:35;11.10;99.90
67974;DHT22;54756;51.140;6.952;2022-07-06T04:10:35;11.20;99.90
67974;DHT22;54756;51.140;6.952;2022-07-06T04:12:40;11.20;99.90
67974;DHT22;54756;51.140;6.952;2022-07-06T04:14:41;11.30;99.90
67974;DHT22;54756;51.140;6.952;2022-07-06T04:16:42;11.30;99.90
67974;DHT22;54756;51.140;6.952;2022-07-06T04:18:42;11.30;99.90
67974;DHT22;54756;51.140;6.952;2022-07-06T04:20:43;11.40;99.90
67974;DHT22;54756;51.140;6.952;2022-07-06T04:22:43;11.30;99.90
67974;DHT22;54756;51.140;6.952;2022-07-06T04:24:44;11.40;99.90
67974;DHT22;54756;51.140;6.952;2022-07-06T04:26:45;11.40;99.90
67974;DHT22;54756;51.140;6.952;2022-07-06T04:28:45;11.40;99.90
67974;DHT22;54756;51.140;6.952;2022-07-06T04:30:46;11.40;99.90
67974;DHT22;54756;51.140;6.952;2022-07-06T04:32:47;11.40;99.90
67974;DHT22;54756;51.140;6.952;2022-07-06T04:34:47;11.50;99.90
67974;DHT22;54756;51.140;6.952;2022-07-06T04:36:48;11.50;99.90
67974;DHT22;54756;51.140;6.952;2022-07-06T04:38:48;11.50;99.90
67974;DHT22;54756;51.140;6.952;2022-07-06T04:40:49;11.60;99.90
67974;DHT22;54756;51.140;6.952;2022-07-06T04:42:49;11.60;99.90
67974;DHT22;54756;51.140;6.952;2022-07-06T04:44:50;11.60;99.90
67974;DHT22;54756;51.140;6.952;2022-07-06T04:46:52;11.70;99.90
67974;DHT22;54756;51.140;6.952;2022-07-06T04:48:52;11.70;99.90
67974;DHT22;54756;51.140;6.952;2022-07-06T04:50:54;11.80;99.90
67974;DHT22;54756;51.140;6.952;2022-07-06T04:52:54;11.80;99.90
67974;DHT22;54756;51.140;6.952;2022-07-06T04:54:55;11.80;99.90
67974;DHT22;54756;51.140;6.952;2022-07-06T04:56:56;11.90;99.90
67974;DHT22;54756;51.140;6.952;2022-07-06T04:58:56;12.00;99.90
67974;DHT22;54756;51.140;6.952;2022-07-06T05:00:57;12.00;99.90
67974;DHT22;54756;51.140;6.952;2022-07-06T05:02:57;12.20;99.90
67974;DHT22;54756;51.140;6.952;2022-07-06T05:04:58;12.20;99.90
67974;DHT22;54756;51.140;6.952;2022-07-06T05:06:59;12.40;99.90
67974;DHT22;54756;51.140;6.952;2022-07-06T05:08:59;12.50;99.90
67974;DHT22;54756;51.140;6.952;2022-07-06T05:11:00;12.60;99.90
67974;DHT22;54756;51.140;6.952;2022-07-06T05:13:01;12.70;99.90
67974;DHT22;54756;51.140;6.952;2022-07-06T05:15:02;12.80;99.90
67974;DHT22;54756;51.140;6.952;2022-07-06T05:17:03;12.90;99.90
67974;DHT22;54756;51.140;6.952;2022-07-06T05:19:04;13.00;99.90
67974;DHT22;54756;51.140;6.952;2022-07-06T05:21:04;13.10;99.90
67974;DHT22;54756;51.140;6.952;2022-07-06T05:23:05;13.20;99.90
67974;DHT22;54756;51.140;6.952;2022-07-06T05:25:05;13.40;99.90
67974;DHT22;54756;51.140;6.952;2022-07-06T05:27:06;13.40;99.90
67974;DHT22;54756;51.140;6.952;2022-07-06T05:29:07;13.60;99.90
67974;DHT22;54756;51.140;6.952;2022-07-06T05:31:07;13.70;99.90
67974;DHT22;54756;51.140;6.952;2022-07-06T05:33:08;13.80;99.90
67974;DHT22;54756;51.140;6.952;2022-07-06T05:35:09;13.90;99.90
67974;DHT22;54756;51.140;6.952;2022-07-06T05:37:09;14.00;99.90
67974;DHT22;54756;51.140;6.952;2022-07-06T05:39:10;14.10;99.90
67974;DHT22;54756;51.140;6.952;2022-07-06T05:41:11;14.20;99.90
67974;DHT22;54756;51.140;6.952;2022-07-06T05:43:11;14.40;99.90
67974;DHT22;54756;51.140;6.952;2022-07-06T05:45:12;14.50;99.90
67974;DHT22;54756;51.140;6.952;2022-07-06T05:47:13;14.70;99.90
67974;DHT22;54756;51.140;6.952;2022-07-06T05:49:32;14.80;99.90
67974;DHT22;54756;51.140;6.952;2022-07-06T05:51:51;14.80;99.90
67974;DHT22;54756;51.140;6.952;2022-07-06T05:53:52;14.90;99.90
67974;DHT22;54756;51.140;6.952;2022-07-06T05:55:53;15.00;99.90
67974;DHT22;54756;51.140;6.952;2022-07-06T05:57:54;15.10;99.90
67974;DHT22;54756;51.140;6.952;2022-07-06T05:59:56;15.20;99.90
67974;DHT22;54756;51.140;6.952;2022-07-06T06:01:56;15.20;99.90
67974;DHT22;54756;51.140;6.952;2022-07-06T06:03:57;15.20;99.90
67974;DHT22;54756;51.140;6.952;2022-07-06T06:05:57;15.30;99.90
67974;DHT22;54756;51.140;6.952;2022-07-06T06:07:58;15.20;99.90
67974;DHT22;54756;51.140;6.952;2022-07-06T06:09:58;15.20;99.90
67974;DHT22;54756;51.140;6.952;2022-07-06T06:11:59;15.20;99.90
67974;DHT22;54756;51.140;6.952;2022-07-06T06:14:00;15.20;99.90
67974;DHT22;54756;51.140;6.952;2022-07-06T06:16:00;15.10;99.90
67974;DHT22;54756;51.140;6.952;2022-07-06T06:18:01;15.10;99.90
67974;DHT22;54756;51.140;6.952;2022-07-06T06:20:06;15.10;99.90
67974;DHT22;54756;51.140;6.952;2022-07-06T06:22:07;15.10;99.90
67974;DHT22;54756;51.140;6.952;2022-07-06T06:24:07;15.10;99.90
67974;DHT22;54756;51.140;6.952;2022-07-06T06:26:08;15.10;99.90
67974;DHT22;54756;51.140;6.952;2022-07-06T06:28:10;15.20;99.90
67974;DHT22;54756;51.140;6.952;2022-07-06T06:30:11;15.20;99.90
67974;DHT22;54756;51.140;6.952;2022-07-06T06:32:13;15.30;99.90
67974;DHT22;54756;51.140;6.952;2022-07-06T06:34:13;15.40;99.90
67974;DHT22;54756;51.140;6.952;2022-07-06T06:36:14;15.40;99.90
67974;DHT22;54756;51.140;6.952;2022-07-06T06:38:15;15.50;99.90
67974;DHT22;54756;51.140;6.952;2022-07-06T06:40:16;15.60;99.90
67974;DHT22;54756;51.140;6.952;2022-07-06T06:42:17;15.60;99.90
67974;DHT22;54756;51.140;6.952;2022-07-06T06:44:17;15.70;99.90
67974;DHT22;54756;51.140;6.952;2022-07-06T06:46:18;15.80;99.90
67974;DHT22;54756;51.140;6.952;2022-07-06T06:48:18;15.80;99.90
67974;DHT22;54756;51.140;6.952;2022-07-06T06:50:19;15.90;99.90
67974;DHT22;54756;51.140;6.952;2022-07-06T06:52:21;16.00;99.90
67974;DHT22;54756;51.140;6.952;2022-07-06T06:54:21;16.00;99.90
67974;DHT22;54756;51.140;6.952;2022-07-06T06:56:22;16.10;99.90
67974;DHT22;54756;51.140;6.952;2022-07-06T06:58:23;16.30;99.90
67974;DHT22;54756;51.140;6.952;2022-07-06T07:00:23;16.40;99.90
67974;DHT22;54756;51.140;6.952;2022-07-06T07:02:24;16.60;99.90
67974;DHT22;54756;51.140;6.952;2022-07-06T07:04:24;16.80;99.90
67974;DHT22;54756;51.140;6.952;2022-07-06T07:06:25;17.00;99.90
67974;DHT22;54756;51.140;6.952;2022-07-06T07:08:26;17.30;99.90
67974;DHT22;54756;51.140;6.952;2022-07-06T07:10:27;17.60;99.90
67974;DHT22;54756;51.140;6.952;2022-07-06T07:12:27;17.90;99.90
67974;DHT22;54756;51.140;6.952;2022-07-06T07:14:28;18.10;99.90
67974;DHT22;54756;51.140;6.952;2022-07-06T07:16:28;18.10;99.90
67974;DHT22;54756;51.140;6.952;2022-07-06T07:18:29;18.10;99.90
67974;DHT22;54756;51.140;6.952;2022-07-06T07:20:30;18.20;99.90
67974;DHT22;54756;51.140;6.952;2022-07-06T07:22:31;18.10;99.90
67974;DHT22;54756;51.140;6.952;2022-07-06T07:24:32;18.10;99.90
67974;DHT22;54756;51.140;6.952;2022-07-06T07:26:32;18.00;99.90
67974;DHT22;54756;51.140;6.952;2022-07-06T07:28:33;18.10;99.90
67974;DHT22;54756;51.140;6.952;2022-07-06T07:30:34;18.10;99.90
67974;DHT22;54756;51.140;6.952;2022-07-06T07:32:34;18.20;99.90
67974;DHT22;54756;51.140;6.952;2022-07-06T07:34:35;18.20;99.90
67974;DHT22;54756;51.140;6.952;2022-07-06T07:36:36;18.20;99.90
67974;DHT22;54756;51.140;6.952;2022-07-06T07:38:37;18.10;99.90
67974;DHT22;54756;51.140;6.952;2022-07-06T07:40:37;18.00;99.90
67974;DHT22;54756;51.140;6.952;2022-07-06T07:42:38;18.00;99.90
67974;DHT22;54756;51.140;6.952;2022-07-06T07:44:40;17.90;99.90
67974;DHT22;54756;51.140;6.952;2022-07-06T07:46:41;17.90;99.90
67974;DHT22;54756;51.140;6.952;2022-07-06T07:48:42;17.80;99.90
67974;DHT22;54756;51.140;6.952;2022-07-06T07:50:43;17.80;99.90
67974;DHT22;54756;51.140;6.952;2022-07-06T07:52:44;17.80;99.90
67974;DHT22;54756;51.140;6.952;2022-07-06T07:54:44;17.80;99.90
67974;DHT22;54756;51.140;6.952;2022-07-06T07:56:45;17.80;99.90
67974;DHT22;54756;51.140;6.952;2022-07-06T07:58:45;17.80;99.90
67974;DHT22;54756;51.140;6.952;2022-07-06T08:00:46;17.90;99.90
67974;DHT22;54756;51.140;6.952;2022-07-06T08:02:47;18.00;99.90
67974;DHT22;54756;51.140;6.952;2022-07-06T08:04:48;18.20;99.90
67974;DHT22;54756;51.140;6.952;2022-07-06T08:06:48;18.30;99.90
67974;DHT22;54756;51.140;6.952;2022-07-06T08:08:49;18.50;99.90
67974;DHT22;54756;51.140;6.952;2022-07-06T08:10:49;18.60;99.90
67974;DHT22;54756;51.140;6.952;2022-07-06T08:12:50;18.80;99.90
67974;DHT22;54756;51.140;6.952;2022-07-06T08:14:51;19.00;99.90
67974;DHT22;54756;51.140;6.952;2022-07-06T08:16:51;19.10;99.90
67974;DHT22;54756;51.140;6.952;2022-07-06T08:18:52;19.20;99.90
67974;DHT22;54756;51.140;6.952;2022-07-06T08:20:52;19.30;99.90
67974;DHT22;54756;51.140;6.952;2022-07-06T08:22:53;19.30;99.90
67974;DHT22;54756;51.140;6.952;2022-07-06T08:24:54;19.30;99.90
67974;DHT22;54756;51.140;6.952;2022-07-06T08:26:54;19.30;99.90
67974;DHT22;54756;51.140;6.952;2022-07-06T08:28:58;19.30;99.90
67974;DHT22;54756;51.140;6.952;2022-07-06T08:30:59;19.40;99.90
67974;DHT22;54756;51.140;6.952;2022-07-06T08:33:00;19.40;99.90
67974;DHT22;54756;51.140;6.952;2022-07-06T08:35:00;19.30;99.90
67974;DHT22;54756;51.140;6.952;2022-07-06T08:37:01;19.40;99.90
67974;DHT22;54756;51.140;6.952;2022-07-06T08:39:01;19.40;99.90
67974;DHT22;54756;51.140;6.952;2022-07-06T08:41:03;19.50;99.90
67974;DHT22;54756;51.140;6.952;2022-07-06T08:43:06;19.80;99.90
67974;DHT22;54756;51.140;6.952;2022-07-06T08:45:07;20.10;99.90
67974;DHT22;54756;51.140;6.952;2022-07-06T08:47:08;20.40;99.90
67974;DHT22;54756;51.140;6.952;2022-07-06T08:49:13;20.80;99.90
67974;DHT22;54756;51.140;6.952;2022-07-06T08:51:14;21.30;99.90
67974;DHT22;54756;51.140;6.952;2022-07-06T08:53:17;21.60;99.90
67974;DHT22;54756;51.140;6.952;2022-07-06T08:55:18;21.80;99.90
67974;DHT22;54756;51.140;6.952;2022-07-06T08:57:19;22.10;99.90
67974;DHT22;54756;51.140;6.952;2022-07-06T08:59:20;22.10;99.90
67974;DHT22;54756;51.140;6.952;2022-07-06T09:01:21;22.10;99.90
67974;DHT22;54756;51.140;6.952;2022-07-06T09:03:23;22.10;99.90
67974;DHT22;54756;51.140;6.952;2022-07-06T09:05:24;22.00;99.90
67974;DHT22;54756;51.140;6.952;2022-07-06T09:07:28;21.90;99.90
67974;DHT22;54756;51.140;6.952;2022-07-06T09:09:29;21.80;99.90
67974;DHT22;54756;51.140;6.952;2022-07-06T09:11:33;21.60;99.90
67974;DHT22;54756;51.140;6.952;2022-07-06T09:13:35;21.40;99.90
67974;DHT22;54756;51.140;6.952;2022-07-06T09:15:37;21.30;99.90
67974;DHT22;54756;51.140;6.952;2022-07-06T09:17:41;21.10;99.90
67974;DHT22;54756;51.140;6.952;2022-07-06T09:19:45;21.00;99.90
67974;DHT22;54756;51.140;6.952;2022-07-06T09:21:46;20.90;99.90
67974;DHT22;54756;51.140;6.952;2022-07-06T09:23:46;20.90;99.90
67974;DHT22;54756;51.140;6.952;2022-07-06T09:25:48;20.90;99.90
67974;DHT22;54756;51.140;6.952;2022-07-06T09:27:50;20.90;99.90
67974;DHT22;54756;51.140;6.952;2022-07-06T09:29:54;21.00;99.90
67974;DHT22;54756;51.140;6.952;2022-07-06T09:32:01;21.10;99.90
67974;DHT22;54756;51.140;6.952;2022-07-06T09:34:06;21.10;99.90
67974;DHT22;54756;51.140;6.952;2022-07-06T09:36:08;21.20;99.90
67974;DHT22;54756;51.140;6.952;2022-07-06T09:38:13;21.20;99.90
67974;DHT22;54756;51.140;6.952;2022-07-06T09:40:18;21.30;99.90
67974;DHT22;54756;51.140;6.952;2022-07-06T09:42:24;21.40;99.90
67974;DHT22;54756;51.140;6.952;2022-07-06T09:44:27;21.40;99.90
67974;DHT22;54756;51.140;6.952;2022-07-06T09:46:28;21.30;99.90
67974;DHT22;54756;51.140;6.952;2022-07-06T09:48:28;21.30;99.90
67974;DHT22;54756;51.140;6.952;2022-07-06T09:50:29;21.40;99.90
67974;DHT22;54756;51.140;6.952;2022-07-06T09:52:38;21.50;99.90
67974;DHT22;54756;51.140;6.952;2022-07-06T09:54:39;21.40;99.90
67974;DHT22;54756;51.140;6.952;2022-07-06T09:56:42;21.40;99.90
67974;DHT22;54756;51.140;6.952;2022-07-06T09:58:43;21.50;99.90
67974;DHT22;54756;51.140;6.952;2022-07-06T10:00:45;21.60;99.90
67974;DHT22;54756;51.140;6.952;2022-07-06T10:02:46;21.70;99.90
67974;DHT22;54756;51.140;6.952;2022-07-06T10:04:48;22.00;99.90
67974;DHT22;54756;51.140;6.952;2022-07-06T10:06:50;22.00;99.90
67974;DHT22;54756;51.140;6.952;2022-07-06T10:08:51;21.90;99.90
67974;DHT22;54756;51.140;6.952;2022-07-06T10:10:52;21.60;99.90
67974;DHT22;54756;51.140;6.952;2022-07-06T10:12:56;21.50;99.90
67974;DHT22;54756;51.140;6.952;2022-07-06T10:14:57;21.50;99.90
67974;DHT22;54756;51.140;6.952;2022-07-06T10:16:59;21.60;99.90
67974;DHT22;54756;51.140;6.952;2022-07-06T10:19:03;21.80;99.90
67974;DHT22;54756;51.140;6.952;2022-07-06T10:21:04;22.00;99.90
67974;DHT22;54756;51.140;6.952;2022-07-06T10:23:07;22.40;99.90
67974;DHT22;54756;51.140;6.952;2022-07-06T10:25:08;22.70;99.90
67974;DHT22;54756;51.140;6.952;2022-07-06T10:27:10;23.20;99.90
67974;DHT22;54756;51.140;6.952;2022-07-06T10:29:11;23.40;99.90
67974;DHT22;54756;51.140;6.952;2022-07-06T10:31:11;23.60;99.90
67974;DHT22;54756;51.140;6.952;2022-07-06T10:33:14;23.60;99.90
67974;DHT22;54756;51.140;6.952;2022-07-06T10:35:18;23.70;99.90
67974;DHT22;54756;51.140;6.952;2022-07-06T10:37:27;24.00;99.90
67974;DHT22;54756;51.140;6.952;2022-07-06T10:39:35;24.50;99.90
67974;DHT22;54756;51.140;6.952;2022-07-06T10:41:55;24.60;99.90
67974;DHT22;54756;51.140;6.952;2022-07-06T10:43:56;24.60;99.90
67974;DHT22;54756;51.140;6.952;2022-07-06T10:45:58;24.60;99.90
67974;DHT22;54756;51.140;6.952;2022-07-06T10:50:11;24.90;99.90
67974;DHT22;54756;51.140;6.952;2022-07-06T10:52:16;25.20;99.90
67974;DHT22;54756;51.140;6.952;2022-07-06T10:54:19;25.40;99.90
67974;DHT22;54756;51.140;6.952;2022-07-06T10:56:35;25.50;99.90
67974;DHT22;54756;51.140;6.952;2022-07-06T11:00:52;25.90;99.60
67974;DHT22;54756;51.140;6.952;2022-07-06T11:02:53;26.10;99.10
67974;DHT22;54756;51.140;6.952;2022-07-06T11:04:53;26.20;99.20
67974;DHT22;54756;51.140;6.952;2022-07-06T11:06:54;26.20;99.10
67974;DHT22;54756;51.140;6.952;2022-07-06T11:11:13;26.10;98.20
67974;DHT22;54756;51.140;6.952;2022-07-06T11:13:27;25.70;97.90
67974;DHT22;54756;51.140;6.952;2022-07-06T11:15:47;25.70;98.90
67974;DHT22;54756;51.140;6.952;2022-07-06T11:18:10;26.10;97.50
67974;DHT22;54756;51.140;6.952;2022-07-06T11:20:12;26.40;97.70
67974;DHT22;54756;51.140;6.952;2022-07-06T11:22:16;26.80;98.20
67974;DHT22;54756;51.140;6.952;2022-07-06T11:24:24;27.40;97.30
67974;DHT22;54756;51.140;6.952;2022-07-06T11:26:26;27.90;95.70
67974;DHT22;54756;51.140;6.952;2022-07-06T11:28:27;28.10;95.80
67974;DHT22;54756;51.140;6.952;2022-07-06T11:30:28;28.20;95.30
67974;DHT22;54756;51.140;6.952;2022-07-06T11:32:29;28.20;95.20
67974;DHT22;54756;51.140;6.952;2022-07-06T11:34:32;28.20;95.30
67974;DHT22;54756;51.140;6.952;2022-07-06T11:36:33;28.30;94.60
67974;DHT22;54756;51.140;6.952;2022-07-06T11:38:34;28.40;94.10
67974;DHT22;54756;51.140;6.952;2022-07-06T11:40:37;28.50;93.90
67974;DHT22;54756;51.140;6.952;2022-07-06T11:42:38;28.50;93.80
67974;DHT22;54756;51.140;6.952;2022-07-06T11:44:41;28.60;92.80
67974;DHT22;54756;51.140;6.952;2022-07-06T11:46:42;28.50;92.00
67974;DHT22;54756;51.140;6.952;2022-07-06T11:48:57;28.10;92.10
67974;DHT22;54756;51.140;6.952;2022-07-06T11:50:59;27.70;92.60
67974;DHT22;54756;51.140;6.952;2022-07-06T11:53:00;27.50;92.30
67974;DHT22;54756;51.140;6.952;2022-07-06T11:55:01;27.20;92.70
67974;DHT22;54756;51.140;6.952;2022-07-06T11:57:02;27.20;92.80
67974;DHT22;54756;51.140;6.952;2022-07-06T11:59:04;27.00;92.50
67974;DHT22;54756;51.140;6.952;2022-07-06T12:01:10;26.60;92.30
67974;DHT22;54756;51.140;6.952;2022-07-06T12:03:10;26.70;93.00
67974;DHT22;54756;51.140;6.952;2022-07-06T12:05:11;28.10;93.00
67974;DHT22;54756;51.140;6.952;2022-07-06T12:07:13;30.00;91.80
67974;DHT22;54756;51.140;6.952;2022-07-06T12:09:14;31.40;88.10
67974;DHT22;54756;51.140;6.952;2022-07-06T12:11:19;31.40;84.40
67974;DHT22;54756;51.140;6.952;2022-07-06T12:13:20;31.30;81.20
67974;DHT22;54756;51.140;6.952;2022-07-06T12:15:27;30.70;81.40
67974;DHT22;54756;51.140;6.952;2022-07-06T12:17:28;30.10;81.90
67974;DHT22;54756;51.140;6.952;2022-07-06T12:19:28;29.70;81.90
67974;DHT22;54756;51.140;6.952;2022-07-06T12:21:30;30.20;82.10
67974;DHT22;54756;51.140;6.952;2022-07-06T12:23:48;31.00;82.70
67974;DHT22;54756;51.140;6.952;2022-07-06T12:25:52;31.20;80.40
67974;DHT22;54756;51.140;6.952;2022-07-06T12:27:54;31.40;78.50
67974;DHT22;54756;51.140;6.952;2022-07-06T12:30:10;31.60;76.50
67974;DHT22;54756;51.140;6.952;2022-07-06T12:32:21;31.40;76.70
67974;DHT22;54756;51.140;6.952;2022-07-06T12:34:29;30.90;73.50
67974;DHT22;54756;51.140;6.952;2022-07-06T12:38:51;29.50;76.50
67974;DHT22;54756;51.140;6.952;2022-07-06T12:40:53;28.80;77.40
67974;DHT22;54756;51.140;6.952;2022-07-06T12:42:53;28.30;78.90
67974;DHT22;54756;51.140;6.952;2022-07-06T12:44:54;27.90;79.20
67974;DHT22;54756;51.140;6.952;2022-07-06T12:47:06;27.70;79.60
67974;DHT22;54756;51.140;6.952;2022-07-06T12:49:16;28.20;82.00
67974;DHT22;54756;51.140;6.952;2022-07-06T12:51:17;29.40;80.50
67974;DHT22;54756;51.140;6.952;2022-07-06T12:53:26;30.50;79.80
67974;DHT22;54756;51.140;6.952;2022-07-06T12:55:28;31.40;77.70
67974;DHT22;54756;51.140;6.952;2022-07-06T12:57:46;31.80;73.20